sensor_id;sensor_type;location;lat;lon;timestamp;temperature;humidity
73833;SHT30;62179;48.444;-4.464;2022-08-01T17:17:30;23.92;65.21
73833;SHT30;62179;48.444;-4.464;2022-08-01T17:19:55;23.89;64.72
73833;SHT30;62179;48.444;-4.464;2022-08-01T17:22:21;23.83;65.01
73833;SHT30;62179;48.444;-4.464;2022-08-01T17:24:46;23.83;65.15
73833;SHT30;62179;48.444;-4.464;2022-08-01T17:27:12;23.76;65.27
73833;SHT30;62179;48.444;-4.464;2022-08-01T17:29:37;23.74;65.30
73833;SHT30;62179;48.444;-4.464;2022-08-01T17:32:07;23.74;65.62
73833;SHT30;62179;48.444;-4.464;2022-08-01T17:34:33;23.74;65.67
73833;SHT30;62179;48.444;-4.464;2022-08-01T17:36:59;23.74;65.65
73833;SHT30;62179;48.444;-4.464;2022-08-01T17:39:25;23.74;65.46
73833;SHT30;62179;48.444;-4.464;2022-08-01T17:41:50;23.69;65.43
73833;SHT30;62179;48.444;-4.464;2022-08-01T17:44:15;23.69;65.56
73833;SHT30;62179;48.444;-4.464;2022-08-01T17:46:41;23.69;65.61
73833;SHT30;62179;48.444;-4.464;2022-08-01T17:49:06;23.68;65.66
73833;SHT30;62179;48.444;-4.464;2022-08-01T17:51:32;23.68;65.69
73833;SHT30;62179;48.444;-4.464;2022-08-01T17:53:57;23.65;65.74
73833;SHT30;62179;48.444;-4.464;2022-08-01T17:56:23;23.61;66.03
73833;SHT30;62179;48.444;-4.464;2022-08-01T17:58:49;23.58;65.86
73833;SHT30;62179;48.444;-4.464;2022-08-01T18:01:16;23.59;65.86
73833;SHT30;62179;48.444;-4.464;2022-08-01T18:03:43;23.58;65.80
73833;SHT30;62179;48.444;-4.464;2022-08-01T18:06:09;23.54;65.75
73833;SHT30;62179;48.444;-4.464;2022-08-01T18:08:37;23.53;65.92
73833;SHT30;62179;48.444;-4.464;2022-08-01T18:11:05;23.50;66.02
73833;SHT30;62179;48.444;-4.464;2022-08-01T18:13:30;23.48;66.17
73833;SHT30;62179;48.444;-4.464;2022-08-01T18:15:56;23.47;66.01
73833;SHT30;62179;48.444;-4.464;2022-08-01T18:18:21;23.47;66.24
73833;SHT30;62179;48.444;-4.464;2022-08-01T18:20:47;23.45;66.36
73833;SHT30;62179;48.444;-4.464;2022-08-01T18:23:12;23.45;66.24
73833;SHT30;62179;48.444;-4.464;2022-08-01T18:25:38;23.40;66.43
73833;SHT30;62179;48.444;-4.464;2022-08-01T18:28:04;23.38;66.28
73833;SHT30;62179;48.444;-4.464;2022-08-01T18:30:29;23.34;66.40
73833;SHT30;62179;48.444;-4.464;2022-08-01T18:32:55;23.30;66.54
73833;SHT30;62179;48.444;-4.464;2022-08-01T18:35:22;23.27;66.67
73833;SHT30;62179;48.444;-4.464;2022-08-01T18:37:48;23.28;66.76
73833;SHT30;62179;48.444;-4.464;2022-08-01T18:40:14;23.24;66.52
73833;SHT30;62179;48.444;-4.464;2022-08-01T18:42:39;23.18;66.53
73833;SHT30;62179;48.444;-4.464;2022-08-01T18:45:05;23.13;66.57
73833;SHT30;62179;48.444;-4.464;2022-08-01T18:47:31;23.08;66.50
73833;SHT30;62179;48.444;-4.464;2022-08-01T18:49:57;23.03;66.69
73833;SHT30;62179;48.444;-4.464;2022-08-01T18:52:22;22.97;66.91
73833;SHT30;62179;48.444;-4.464;2022-08-01T18:54:47;22.93;67.08
73833;SHT30;62179;48.444;-4.464;2022-08-01T18:57:13;22.87;67.09
73833;SHT30;62179;48.444;-4.464;2022-08-01T18:59:38;22.86;67.10
73833;SHT30;62179;48.444;-4.464;2022-08-01T19:02:05;22.80;67.26
73833;SHT30;62179;48.444;-4.464;2022-08-01T19:04:30;22.75;67.39
73833;SHT30;62179;48.444;-4.464;2022-08-01T19:06:56;22.70;67.43
73833;SHT30;62179;48.444;-4.464;2022-08-01T19:09:22;22.66;67.65
73833;SHT30;62179;48.444;-4.464;2022-08-01T19:11:48;22.62;67.86
73833;SHT30;62179;48.444;-4.464;2022-08-01T19:14:13;22.56;68.15
73833;SHT30;62179;48.444;-4.464;2022-08-01T19:16:39;22.52;68.35
73833;SHT30;62179;48.444;-4.464;2022-08-01T19:19:06;22.48;68.55
73833;SHT30;62179;48.444;-4.464;2022-08-01T19:21:34;22.46;68.87
73833;SHT30;62179;48.444;-4.464;2022-08-01T19:24:00;22.41;68.89
73833;SHT30;62179;48.444;-4.464;2022-08-01T19:26:52;22.35;69.02
73833;SHT30;62179;48.444;-4.464;2022-08-01T19:29:32;22.28;69.27
73833;SHT30;62179;48.444;-4.464;2022-08-01T19:31:59;22.25;69.44
73833;SHT30;62179;48.444;-4.464;2022-08-01T19:34:26;22.21;69.36
73833;SHT30;62179;48.444;-4.464;2022-08-01T19:36:54;22.17;69.45
73833;SHT30;62179;48.444;-4.464;2022-08-01T19:39:22;22.07;69.56
73833;SHT30;62179;48.444;-4.464;2022-08-01T19:41:50;22.01;69.29
73833;SHT30;62179;48.444;-4.464;2022-08-01T19:44:20;21.96;69.36
73833;SHT30;62179;48.444;-4.464;2022-08-01T19:46:48;21.87;69.44
73833;SHT30;62179;48.444;-4.464;2022-08-01T19:49:15;21.81;69.79
73833;SHT30;62179;48.444;-4.464;2022-08-01T19:51:52;21.69;70.15
73833;SHT30;62179;48.444;-4.464;2022-08-01T19:54:20;21.64;70.44
73833;SHT30;62179;48.444;-4.464;2022-08-01T19:56:47;21.63;70.68
73833;SHT30;62179;48.444;-4.464;2022-08-01T19:59:19;21.63;70.70
73833;SHT30;62179;48.444;-4.464;2022-08-01T20:01:46;21.57;70.87
73833;SHT30;62179;48.444;-4.464;2022-08-01T20:04:14;21.54;71.02
73833;SHT30;62179;48.444;-4.464;2022-08-01T20:06:39;21.54;71.16
73833;SHT30;62179;48.444;-4.464;2022-08-01T20:09:05;21.51;71.29
73833;SHT30;62179;48.444;-4.464;2022-08-01T20:11:32;21.50;71.21
73833;SHT30;62179;48.444;-4.464;2022-08-01T20:13:58;21.49;71.22
73833;SHT30;62179;48.444;-4.464;2022-08-01T20:16:25;21.45;71.29
73833;SHT30;62179;48.444;-4.464;2022-08-01T20:18:53;21.43;71.47
73833;SHT30;62179;48.444;-4.464;2022-08-01T20:21:19;21.40;71.52
73833;SHT30;62179;48.444;-4.464;2022-08-01T20:23:45;21.39;71.48
73833;SHT30;62179;48.444;-4.464;2022-08-01T20:26:13;21.36;71.58
73833;SHT30;62179;48.444;-4.464;2022-08-01T20:28:40;21.35;71.76
73833;SHT30;62179;48.444;-4.464;2022-08-01T20:31:09;21.36;72.00
73833;SHT30;62179;48.444;-4.464;2022-08-01T20:33:40;21.35;72.07
73833;SHT30;62179;48.444;-4.464;2022-08-01T20:36:06;21.36;72.28
73833;SHT30;62179;48.444;-4.464;2022-08-01T20:38:32;21.35;72.22
73833;SHT30;62179;48.444;-4.464;2022-08-01T20:41:00;21.32;72.40
73833;SHT30;62179;48.444;-4.464;2022-08-01T20:43:27;21.30;72.60
